Time;durP1;ratioP1;P1;durP2;ratioP2;P2;SDS_P1;SDS_P2;PMS_P1;PMS_P2;Temp;Humidity;BMP_temperature;BMP_pressure;BME280_temperature;BME280_humidity;BME280_pressure;Samples;Min_cycle;Max_cycle;Signal;HPM_P1;HPM_P2
2021/06/02 00:00:42;;;;;;;7.05;4.57;;;16.30;90.60;;;;;;5033052;28;20052;-67
2021/06/02 00:03:48;;;;;;;4.93;4.25;;;16.30;90.90;;;;;;5033469;28;20385;-67
2021/06/02 00:07:02;;;;;;;5.90;2.80;;;16.20;91.50;;;;;;5033144;28;20052;-67
2021/06/02 00:10:09;;;;;;;4.30;2.85;;;16.20;91.60;;;;;;5032205;28;20039;-68
2021/06/02 00:13:14;;;;;;;5.13;3.25;;;16.20;92.10;;;;;;5032698;28;20040;-68
2021/06/02 00:16:18;;;;;;;5.72;2.65;;;16.10;91.90;;;;;;5033319;28;20056;-69
2021/06/02 00:19:23;;;;;;;7.57;2.83;;;15.90;92.00;;;;;;5032984;28;20513;-68
2021/06/02 00:22:27;;;;;;;3.88;2.63;;;15.90;92.60;;;;;;5032819;28;20032;-68
2021/06/02 00:25:32;;;;;;;5.00;2.90;;;15.60;93.30;;;;;;5031440;28;20499;-68
2021/06/02 00:28:38;;;;;;;10.00;3.08;;;15.30;93.60;;;;;;5033145;28;20053;-68
2021/06/02 00:31:45;;;;;;;3.63;2.63;;;15.00;94.60;;;;;;5032836;28;20044;-68
2021/06/02 00:34:50;;;;;;;2.95;2.40;;;14.90;95.00;;;;;;5032560;28;20037;-67
2021/06/02 00:37:54;;;;;;;4.35;3.35;;;14.90;95.40;;;;;;5033027;28;20055;-68
2021/06/02 00:40:59;;;;;;;4.68;2.47;;;15.00;95.40;;;;;;5031770;28;20404;-67
2021/06/02 00:44:09;;;;;;;4.85;3.10;;;15.10;95.40;;;;;;5032073;28;20068;-67
2021/06/02 00:47:15;;;;;;;4.15;2.78;;;15.00;95.70;;;;;;5032573;28;20040;-67
2021/06/02 00:50:20;;;;;;;4.97;2.50;;;15.00;95.90;;;;;;5031386;28;20044;-68
2021/06/02 00:53:24;;;;;;;4.18;2.47;;;15.00;95.70;;;;;;5032364;28;20631;-67
2021/06/02 00:56:43;;;;;;;5.38;2.95;;;15.10;95.40;;;;;;5032092;28;20316;-67
2021/06/02 00:59:56;;;;;;;3.97;2.88;;;15.20;95.10;;;;;;5032227;28;20463;-69
2021/06/02 01:03:05;;;;;;;5.57;2.88;;;14.70;97.10;;;;;;5032585;28;20040;-67
2021/06/02 01:06:09;;;;;;;6.85;2.70;;;14.50;98.00;;;;;;5032118;28;20048;-67
2021/06/02 01:09:17;;;;;;;7.72;3.03;;;14.50;98.80;;;;;;5031508;28;20400;-68
2021/06/02 01:12:24;;;;;;;3.83;2.60;;;14.50;99.40;;;;;;5031664;28;20040;-67
2021/06/02 01:15:29;;;;;;;3.40;2.85;;;14.60;99.50;;;;;;5031728;28;20044;-67
2021/06/02 01:18:35;;;;;;;7.75;3.55;;;14.70;99.90;;;;;;5027508;28;20045;-67
2021/06/02 01:22:10;;;;;;;6.38;3.20;;;14.70;99.90;;;;;;5026491;28;20132;-67
2021/06/02 01:25:20;;;;;;;5.07;3.30;;;14.70;99.90;;;;;;5021921;28;20041;-67
2021/06/02 01:28:25;;;;;;;7.43;3.00;;;14.60;99.90;;;;;;5031054;28;20037;-67
2021/06/02 01:31:54;;;;;;;4.15;3.13;;;14.50;99.90;;;;;;5025106;28;20048;-67
2021/06/02 01:35:15;;;;;;;4.70;3.47;;;14.60;99.90;;;;;;5031387;28;20068;-66
2021/06/02 01:39:07;;;;;;;7.95;3.35;;;14.40;99.90;;;;;;5030870;28;20033;-67
2021/06/02 01:42:12;;;;;;;6.47;4.10;;;14.30;99.90;;;;;;5030509;28;20745;-67
2021/06/02 01:45:42;;;;;;;10.98;3.72;;;14.20;99.90;;;;;;5030828;28;20523;-67
2021/06/02 01:49:24;;;;;;;6.97;3.95;;;14.20;99.90;;;;;;5030074;28;20057;-67
2021/06/02 01:52:40;;;;;;;6.20;3.72;;;14.20;99.90;;;;;;5030557;28;20040;-67
2021/06/02 01:56:26;;;;;;;8.18;3.25;;;14.30;99.90;;;;;;5029566;28;20045;-67
2021/06/02 01:59:52;;;;;;;7.75;4.13;;;14.40;99.90;;;;;;5016845;28;20413;-67
2021/06/02 02:03:16;;;;;;;4.63;3.47;;;14.40;99.90;;;;;;5018777;28;20048;-67
2021/06/02 02:06:45;;;;;;;5.63;3.42;;;14.50;99.90;;;;;;5017528;28;20045;-67
2021/06/02 02:10:41;;;;;;;5.63;3.70;;;14.60;99.90;;;;;;5017366;28;20036;-67
2021/06/02 02:14:00;;;;;;;6.05;3.80;;;14.50;99.90;;;;;;5014679;28;20503;-67
2021/06/02 02:17:22;;;;;;;4.50;3.45;;;14.50;99.90;;;;;;5022006;28;20048;-67
2021/06/02 02:20:44;;;;;;;6.97;3.55;;;14.40;99.90;;;;;;5020307;28;20068;-67
2021/06/02 02:24:11;;;;;;;7.28;3.38;;;14.40;99.90;;;;;;5029937;28;20511;-67
2021/06/02 02:27:31;;;;;;;5.78;3.72;;;14.40;99.90;;;;;;5018120;28;20052;-67
2021/06/02 02:31:00;;;;;;;5.03;3.90;;;14.30;99.90;;;;;;5029791;28;20055;-68
2021/06/02 02:34:19;;;;;;;4.68;3.70;;;14.30;99.90;;;;;;5016468;28;20045;-68
2021/06/02 02:37:49;;;;;;;5.35;3.83;;;14.20;99.90;;;;;;5016147;28;20052;-68
2021/06/02 02:41:19;;;;;;;5.75;3.65;;;14.20;99.90;;;;;;5016834;28;20037;-68
2021/06/02 02:45:05;;;;;;;7.07;3.90;;;14.20;99.90;;;;;;5014035;28;20060;-68
2021/06/02 02:48:32;;;;;;;4.80;3.65;;;14.20;99.90;;;;;;5030297;28;20048;-68
2021/06/02 02:51:44;;;;;;;8.20;3.85;;;14.20;99.90;;;;;;5010302;28;20049;-68
2021/06/02 02:55:14;;;;;;;8.57;3.78;;;14.10;99.90;;;;;;4997826;28;20053;-68
2021/06/02 02:58:29;;;;;;;8.73;4.20;;;14.10;99.90;;;;;;5010293;28;20041;-68
2021/06/02 03:01:39;;;;;;;7.68;3.97;;;14.10;99.90;;;;;;5010988;28;20089;-68
2021/06/02 03:04:51;;;;;;;6.32;4.28;;;14.10;99.90;;;;;;5029466;28;20048;-68
2021/06/02 03:08:17;;;;;;;6.22;3.70;;;14.00;99.90;;;;;;5039719;28;20052;-68
2021/06/02 03:11:33;;;;;;;6.53;4.40;;;14.00;99.90;;;;;;5029521;28;20392;-68
2021/06/02 03:15:16;;;;;;;5.75;4.20;;;13.90;99.90;;;;;;5029040;28;20041;-68
2021/06/02 03:18:31;;;;;;;;;;;13.90;99.90;;;;;;4953643;28;20046;-68
2021/06/02 03:21:47;;;;;;;8.18;4.78;;;13.80;99.90;;;;;;5029566;28;19913;-67
2021/06/02 03:25:15;;;;;;;5.43;4.10;;;13.70;99.90;;;;;;5028796;28;20049;-68
2021/06/02 03:28:30;;;;;;;6.25;3.80;;;13.70;99.90;;;;;;5030397;28;20068;-68
2021/06/02 03:32:00;;;;;;;10.35;4.93;;;13.60;99.90;;;;;;5029436;28;20403;-66
2021/06/02 03:35:12;;;;;;;5.65;4.05;;;13.60;99.90;;;;;;5029298;28;20040;-68
2021/06/02 03:38:56;;;;;;;5.10;4.38;;;13.70;99.90;;;;;;5030152;28;20044;-67
2021/06/02 03:42:13;;;;;;;4.20;3.60;;;13.70;99.90;;;;;;5021996;28;20048;-68
2021/06/02 03:45:27;;;;;;;7.07;4.05;;;13.70;99.90;;;;;;5029868;28;20048;-68
2021/06/02 03:48:47;;;;;;;7.53;4.85;;;13.60;99.90;;;;;;5029520;28;20394;-68
2021/06/02 03:52:05;;;;;;;7.28;4.75;;;13.40;99.90;;;;;;5028605;28;20064;-68
2021/06/02 03:55:36;;;;;;;6.10;4.85;;;13.40;99.90;;;;;;5028559;28;20052;-68
2021/06/02 03:58:52;;;;;;;7.13;4.80;;;13.30;99.90;;;;;;5029278;28;20055;-68
2021/06/02 04:02:02;;;;;;;7.65;5.30;;;13.30;99.90;;;;;;5028593;28;20040;-68
2021/06/02 04:05:24;;;;;;;10.85;5.57;;;13.40;99.90;;;;;;5029668;28;20052;-68
2021/06/02 04:08:42;;;;;;;7.72;4.85;;;13.60;99.90;;;;;;5029023;28;20044;-68
2021/06/02 04:12:01;;;;;;;8.23;4.90;;;13.70;99.90;;;;;;5029409;28;20659;-68
2021/06/02 04:15:08;;;;;;;6.80;4.90;;;13.80;99.90;;;;;;5029606;28;20044;-67
2021/06/02 04:18:13;;;;;;;10.15;5.30;;;13.90;99.90;;;;;;5029202;28;20044;-67
2021/06/02 04:21:22;;;;;;;7.53;5.30;;;14.00;99.90;;;;;;5031273;28;20387;-67
2021/06/02 04:24:30;;;;;;;6.30;4.63;;;14.20;99.90;;;;;;5019779;28;20060;-67
2021/06/02 04:27:38;;;;;;;11.02;4.75;;;14.30;99.90;;;;;;5033063;28;20507;-67
2021/06/02 04:30:48;;;;;;;6.20;4.40;;;15.40;99.90;;;;;;5032551;28;20060;-67
2021/06/02 04:33:56;;;;;;;5.65;3.83;;;17.90;99.90;;;;;;5020011;28;20072;-67
2021/06/02 04:37:05;;;;;;;6.70;4.13;;;20.00;99.90;;;;;;5032791;28;20065;-67
2021/06/02 04:40:10;;;;;;;7.97;3.70;;;21.70;99.30;;;;;;5030951;28;20056;-68
2021/06/02 04:43:15;;;;;;;4.47;3.40;;;22.70;96.40;;;;;;5032337;28;20036;-67
2021/06/02 04:46:21;;;;;;;5.20;3.20;;;23.40;94.70;;;;;;5032125;28;20404;-68
2021/06/02 04:50:02;;;;;;;6.47;3.30;;;24.20;92.90;;;;;;5032581;28;20049;-68
2021/06/02 04:53:51;;;;;;;12.05;4.07;;;24.40;92.00;;;;;;5024258;28;20036;-69
2021/06/02 04:57:20;;;;;;;8.73;3.78;;;24.50;91.70;;;;;;5031745;28;20052;-68
2021/06/02 05:00:50;;;;;;;7.07;3.30;;;23.30;92.30;;;;;;5031748;28;20056;-69
2021/06/02 05:04:25;;;;;;;6.40;3.38;;;22.30;93.00;;;;;;5012457;28;20061;-69
2021/06/02 05:07:48;;;;;;;5.32;3.75;;;21.40;94.20;;;;;;5011838;28;20052;-68
2021/06/02 05:11:13;;;;;;;7.03;4.00;;;19.80;96.00;;;;;;4999089;28;20048;-67
2021/06/02 05:14:47;;;;;;;11.93;4.45;;;17.90;99.80;;;;;;5012077;28;20053;-68
2021/06/02 05:18:19;;;;;;;7.28;3.95;;;18.00;99.90;;;;;;5011811;28;20045;-68
2021/06/02 05:25:11;;;;;;;4.78;3.90;;;17.80;99.90;;;;;;5011803;28;20061;-68
2021/06/02 05:28:50;;;;;;;8.73;4.18;;;16.90;99.90;;;;;;5011815;28;20068;-67
2021/06/02 05:32:09;;;;;;;7.18;3.85;;;16.60;99.90;;;;;;5010550;28;20045;-67
2021/06/02 05:35:50;;;;;;;5.53;4.25;;;17.10;99.90;;;;;;5010039;28;20053;-68
2021/06/02 05:39:39;;;;;;;5.97;3.42;;;17.90;99.90;;;;;;5010746;28;20044;-67
2021/06/02 05:43:08;;;;;;;13.48;4.22;;;19.20;99.90;;;;;;5010856;28;20053;-68
2021/06/02 05:46:45;;;;;;;8.30;3.80;;;19.40;99.90;;;;;;5011606;28;20045;-68
2021/06/02 05:50:11;;;;;;;10.60;3.42;;;19.60;99.90;;;;;;5011259;28;20045;-67
2021/06/02 05:53:55;;;;;;;7.63;3.40;;;20.10;99.90;;;;;;5011592;28;20045;-67
2021/06/02 05:57:27;;;;;;;10.63;3.58;;;21.00;98.80;;;;;;5011444;28;20048;-68
2021/06/02 06:00:51;;;;;;;10.48;3.70;;;21.60;97.60;;;;;;5009810;28;20499;-69
2021/06/02 06:04:47;;;;;;;7.80;3.58;;;20.80;98.10;;;;;;5011601;28;20041;-69
2021/06/02 06:08:28;;;;;;;3.92;3.30;;;19.20;99.90;;;;;;4994357;28;20049;-69
2021/06/02 06:11:59;;;;;;;6.40;3.87;;;17.90;99.90;;;;;;5010549;28;20045;-68
2021/06/02 06:15:18;;;;;;;6.50;3.53;;;16.90;99.90;;;;;;5010794;28;20048;-68
2021/06/02 06:18:59;;;;;;;7.15;3.75;;;17.20;99.90;;;;;;5014089;28;20041;-68
2021/06/02 06:22:15;;;;;;;4.47;3.75;;;17.20;99.90;;;;;;5026762;28;20479;-68
2021/06/02 06:25:33;;;;;;;6.90;3.40;;;17.70;99.90;;;;;;5018053;28;20045;-68
2021/06/02 06:29:00;;;;;;;4.68;3.33;;;18.40;99.90;;;;;;5014329;28;20045;-68
2021/06/02 06:32:07;;;;;;;4.85;3.38;;;18.40;99.90;;;;;;5011492;28;20052;-68
2021/06/02 06:35:15;;;;;;;4.50;3.40;;;18.50;99.90;;;;;;5022192;28;20040;-68
2021/06/02 06:38:38;;;;;;;4.85;3.33;;;18.50;99.90;;;;;;5018168;28;20420;-69
2021/06/02 06:41:43;;;;;;;4.05;3.15;;;17.90;99.90;;;;;;5026820;28;20040;-68
2021/06/02 06:44:52;;;;;;;8.98;3.67;;;18.50;99.90;;;;;;5030078;28;20044;-68
2021/06/02 06:47:58;;;;;;;6.30;3.35;;;18.10;99.90;;;;;;5029765;28;20049;-68
2021/06/02 06:51:04;;;;;;;4.40;2.95;;;18.80;99.90;;;;;;5029989;28;20045;-67
2021/06/02 06:54:12;;;;;;;5.15;3.17;;;20.20;99.20;;;;;;5016913;28;20044;-67
2021/06/02 06:57:19;;;;;;;7.82;3.05;;;20.70;97.60;;;;;;5030086;28;20036;-68
2021/06/02 07:00:25;;;;;;;5.80;3.45;;;20.00;97.80;;;;;;5029553;28;20044;-67
2021/06/02 07:03:30;;;;;;;7.75;3.28;;;20.60;97.80;;;;;;5029453;28;20397;-68
2021/06/02 07:06:37;;;;;;;5.10;3.20;;;20.90;97.20;;;;;;5030121;28;20040;-68
2021/06/02 07:09:41;;;;;;;7.47;3.20;;;21.50;96.40;;;;;;5016872;28;20060;-67
2021/06/02 07:12:46;;;;;;;5.00;2.97;;;21.50;96.30;;;;;;5030301;28;20045;-68
2021/06/02 07:15:51;;;;;;;6.13;3.28;;;22.10;95.50;;;;;;5029854;28;20424;-68
2021/06/02 07:19:06;;;;;;;6.97;3.20;;;22.40;95.80;;;;;;5029387;28;20062;-68
2021/06/02 07:22:11;;;;;;;4.90;3.08;;;22.50;94.70;;;;;;5020990;28;20284;-68
2021/06/02 07:25:23;;;;;;;7.10;2.92;;;23.40;94.10;;;;;;5022822;28;20045;-68
2021/06/02 07:28:38;;;;;;;5.47;3.20;;;23.80;93.30;;;;;;5017335;28;20049;-68
2021/06/02 07:31:42;;;;;;;8.05;3.45;;;22.30;95.00;;;;;;5017311;28;20045;-68
2021/06/02 07:34:47;;;;;;;6.60;3.25;;;22.90;94.10;;;;;;5021110;28;20048;-68
2021/06/02 07:37:52;;;;;;;6.47;3.20;;;22.40;94.10;;;;;;5017721;28;20053;-68
2021/06/02 07:40:57;;;;;;;10.40;3.50;;;23.40;94.00;;;;;;5011432;28;20033;-68
2021/06/02 07:44:01;;;;;;;7.07;3.42;;;23.80;94.00;;;;;;5018931;28;20045;-68
2021/06/02 07:47:06;;;;;;;5.55;2.83;;;24.80;92.50;;;;;;5017785;28;20396;-68
2021/06/02 07:50:14;;;;;;;8.70;3.47;;;25.30;91.80;;;;;;5015836;28;20045;-68
2021/06/02 07:53:20;;;;;;;4.50;3.00;;;25.90;90.90;;;;;;5015919;28;20053;-68
2021/06/02 07:56:24;;;;;;;9.82;3.70;;;25.40;91.10;;;;;;5018096;28;20041;-68
2021/06/02 07:59:29;;;;;;;13.05;3.45;;;25.90;90.90;;;;;;5019674;28;20040;-68
2021/06/02 08:02:33;;;;;;;8.63;2.92;;;26.30;90.20;;;;;;5018718;28;20503;-68
2021/06/02 08:05:37;;;;;;;7.80;2.90;;;26.50;90.00;;;;;;5025359;28;20044;-68
2021/06/02 08:08:41;;;;;;;7.95;3.33;;;26.80;89.40;;;;;;5031978;28;20052;-68
2021/06/02 08:11:46;;;;;;;5.63;3.38;;;26.80;87.40;;;;;;5032187;28;20048;-67
2021/06/02 08:14:50;;;;;;;6.10;3.50;;;26.80;87.60;;;;;;5032263;28;20048;-68
2021/06/02 08:17:54;;;;;;;8.30;3.65;;;27.00;86.60;;;;;;5030522;28;20056;-68
2021/06/02 08:20:58;;;;;;;6.38;3.00;;;27.20;87.00;;;;;;5030909;28;20048;-68
2021/06/02 08:24:03;;;;;;;7.38;3.20;;;27.40;87.20;;;;;;5014338;28;20060;-68
2021/06/02 08:27:12;;;;;;;5.18;2.95;;;28.10;85.80;;;;;;5027983;28;20437;-68
2021/06/02 08:30:17;;;;;;;7.57;3.22;;;29.10;85.00;;;;;;5012890;28;20417;-69
2021/06/02 08:33:21;;;;;;;8.02;3.53;;;29.60;83.70;;;;;;5011849;28;20041;-69
2021/06/02 08:36:26;;;;;;;4.47;3.55;;;28.30;83.70;;;;;;5012400;28;20045;-68
2021/06/02 08:39:31;;;;;;;6.57;3.55;;;28.80;82.60;;;;;;5011538;28;20037;-68
2021/06/02 08:42:39;;;;;;;10.32;3.67;;;29.00;81.10;;;;;;5012773;28;20053;-68
2021/06/02 08:45:43;;;;;;;8.27;3.60;;;28.90;81.10;;;;;;5012538;28;20044;-68
2021/06/02 08:48:49;;;;;;;7.10;3.17;;;28.80;81.70;;;;;;5012159;28;20053;-68
2021/06/02 08:51:54;;;;;;;5.18;3.05;;;28.90;82.60;;;;;;5012711;28;20045;-68
2021/06/02 08:54:59;;;;;;;6.18;3.30;;;29.30;81.30;;;;;;5010860;28;20049;-68
2021/06/02 08:58:05;;;;;;;9.70;3.17;;;29.80;80.80;;;;;;5012295;28;20499;-68
2021/06/02 09:01:10;;;;;;;7.65;3.40;;;30.50;79.40;;;;;;5011960;28;20045;-69
2021/06/02 09:04:14;;;;;;;9.05;3.70;;;30.30;78.20;;;;;;5011798;28;20515;-68
2021/06/02 09:07:18;;;;;;;5.25;2.72;;;28.10;82.80;;;;;;5011158;28;20504;-68
2021/06/02 09:10:24;;;;;;;7.13;3.03;;;28.30;83.40;;;;;;5010568;28;20045;-68
2021/06/02 09:13:29;;;;;;;5.22;3.30;;;29.40;81.50;;;;;;5012704;28;20048;-68
2021/06/02 09:16:33;;;;;;;5.65;3.15;;;29.80;79.60;;;;;;5011371;28;20389;-68
2021/06/02 09:19:46;;;;;;;4.90;2.80;;;31.70;78.60;;;;;;5012241;28;20041;-68
2021/06/02 09:22:51;;;;;;;6.55;2.78;;;31.50;77.50;;;;;;5012286;28;20048;-69
2021/06/02 09:26:11;;;;;;;3.38;2.35;;;32.60;73.40;;;;;;5013112;28;20057;-69
2021/06/02 09:29:16;;;;;;;5.28;2.42;;;32.90;71.90;;;;;;5012023;28;20045;-68
2021/06/02 09:32:22;;;;;;;5.07;2.53;;;32.60;72.50;;;;;;5011309;28;20053;-68
2021/06/02 09:35:41;;;;;;;6.57;2.60;;;30.00;73.50;;;;;;5011228;28;20049;-68
2021/06/02 09:38:52;;;;;;;8.38;2.50;;;31.90;73.00;;;;;;5010968;28;20045;-68
2021/06/02 09:42:27;;;;;;;5.47;2.53;;;31.30;72.70;;;;;;5019384;28;20044;-68
2021/06/02 09:45:32;;;;;;;3.92;2.33;;;33.10;71.50;;;;;;5031202;28;20511;-68
2021/06/02 09:49:01;;;;;;;3.42;1.90;;;32.70;68.40;;;;;;5030777;28;20052;-69
2021/06/02 09:52:05;;;;;;;4.15;2.40;;;33.80;68.20;;;;;;5031436;28;20068;-69
2021/06/02 09:55:21;;;;;;;6.63;2.63;;;32.40;68.60;;;;;;5030309;28;20049;-68
2021/06/02 09:58:25;;;;;;;3.08;2.00;;;30.80;68.80;;;;;;5030290;28;20040;-69
2021/06/02 10:01:50;;;;;;;3.25;1.50;;;31.20;66.50;;;;;;5030953;28;20044;-68
2021/06/02 10:05:10;;;;;;;3.13;1.52;;;33.50;60.00;;;;;;5030539;28;20268;-68
2021/06/02 10:08:34;;;;;;;4.03;1.90;;;36.00;59.30;;;;;;5031243;28;20052;-68
2021/06/02 10:11:54;;;;;;;2.63;1.75;;;38.50;58.90;;;;;;5030891;28;20040;-68
2021/06/02 10:14:59;;;;;;;11.30;2.53;;;38.20;56.20;;;;;;5031037;28;20076;-68
2021/06/02 10:18:12;;;;;;;8.85;1.70;;;38.60;54.00;;;;;;5030758;28;20384;-68
2021/06/02 10:21:16;;;;;;;2.95;1.50;;;37.60;56.00;;;;;;5030128;28;20412;-68
2021/06/02 10:24:21;;;;;;;4.45;1.92;;;36.00;56.30;;;;;;5029958;28;20036;-68
2021/06/02 10:27:27;;;;;;;2.08;1.40;;;33.20;58.70;;;;;;5030461;28;20513;-68
2021/06/02 10:30:31;;;;;;;2.38;1.25;;;32.90;56.10;;;;;;5030058;28;20392;-68
2021/06/02 10:33:35;;;;;;;1.98;1.42;;;34.80;56.40;;;;;;5031000;28;20500;-68
2021/06/02 10:36:39;;;;;;;3.00;1.40;;;35.20;56.00;;;;;;5029613;28;20049;-68
2021/06/02 10:40:01;;;;;;;3.35;1.30;;;34.20;55.60;;;;;;5030261;28;20506;-68
2021/06/02 10:43:10;;;;;;;2.55;1.30;;;36.50;55.30;;;;;;5030382;28;20056;-68
2021/06/02 10:46:17;;;;;;;2.58;1.63;;;34.30;57.40;;;;;;5030131;28;20411;-68
2021/06/02 10:49:28;;;;;;;3.53;1.83;;;34.50;58.20;;;;;;5030374;28;20040;-69
2021/06/02 10:52:37;;;;;;;4.65;1.60;;;35.50;56.70;;;;;;5030361;28;20044;-68
2021/06/02 10:55:43;;;;;;;4.47;1.60;;;36.50;56.10;;;;;;5029564;28;20045;-69
2021/06/02 10:58:48;;;;;;;3.58;1.10;;;35.60;56.20;;;;;;5030162;28;20044;-68
2021/06/02 11:02:11;;;;;;;4.53;1.85;;;37.10;55.40;;;;;;5030163;28;20037;-68
2021/06/02 11:05:16;;;;;;;3.40;1.63;;;34.70;52.50;;;;;;5030246;28;20048;-68
2021/06/02 11:08:20;;;;;;;2.28;1.33;;;33.70;56.90;;;;;;5029907;28;20048;-68
2021/06/02 11:11:33;;;;;;;1.52;1.20;;;32.70;57.20;;;;;;5029825;28;20048;-69
2021/06/02 11:14:39;;;;;;;5.45;1.77;;;34.40;58.20;;;;;;5030142;28;20048;-69
2021/06/02 11:18:10;;;;;;;4.05;1.40;;;35.90;55.50;;;;;;5029807;28;20507;-69
2021/06/02 11:21:14;;;;;;;1.70;1.20;;;35.60;55.70;;;;;;5029821;28;20041;-68
2021/06/02 11:24:40;;;;;;;6.38;1.45;;;36.40;54.80;;;;;;5029223;28;20053;-68
2021/06/02 11:27:44;;;;;;;5.97;1.20;;;36.40;55.60;;;;;;5030287;28;20500;-68
2021/06/02 11:31:09;;;;;;;3.97;1.20;;;37.20;53.70;;;;;;5031213;28;20049;-68
2021/06/02 11:34:27;;;;;;;2.28;1.02;;;38.20;52.60;;;;;;5033938;28;20100;-68
2021/06/02 11:37:34;;;;;;;2.85;1.02;;;38.70;52.30;;;;;;5033782;28;20048;-69
2021/06/02 11:40:38;;;;;;;2.60;1.05;;;38.80;54.20;;;;;;5032008;28;20036;-68
2021/06/02 11:43:42;;;;;;;2.45;1.50;;;37.10;53.90;;;;;;5033299;28;20052;-68
2021/06/02 11:46:50;;;;;;;3.47;1.52;;;36.30;54.90;;;;;;5033093;28;20049;-70
2021/06/02 11:50:24;;;;;;;2.45;1.35;;;35.50;55.60;;;;;;5033541;28;20036;-68
2021/06/02 11:53:40;;;;;;;3.00;1.60;;;35.40;55.70;;;;;;5033204;28;20528;-68
2021/06/02 11:56:44;;;;;;;2.35;1.65;;;35.40;54.50;;;;;;5032723;28;20052;-68
2021/06/02 11:59:48;;;;;;;2.53;1.67;;;35.40;55.80;;;;;;5021258;28;20522;-68
2021/06/02 12:03:07;;;;;;;4.30;1.65;;;35.70;55.50;;;;;;5033096;28;20173;-68
2021/06/02 12:06:12;;;;;;;3.10;1.45;;;35.70;54.30;;;;;;5033492;28;20056;-68
2021/06/02 12:09:17;;;;;;;3.08;1.52;;;35.70;55.50;;;;;;5032501;28;20044;-68
2021/06/02 12:12:22;;;;;;;2.08;1.50;;;33.30;57.90;;;;;;5032707;28;20048;-68
2021/06/02 12:15:39;;;;;;;3.42;1.65;;;33.50;58.00;;;;;;5033353;28;20514;-68
2021/06/02 12:18:46;;;;;;;2.78;1.50;;;33.80;57.40;;;;;;5032449;28;20041;-69
2021/06/02 12:21:51;;;;;;;13.18;3.53;;;33.00;55.70;;;;;;5033388;28;20100;-68
2021/06/02 12:25:04;;;;;;;5.93;1.63;;;31.70;58.10;;;;;;5032395;28;20048;-68
2021/06/02 12:28:09;;;;;;;2.22;1.67;;;32.60;59.50;;;;;;5032423;28;20531;-68
2021/06/02 12:31:33;;;;;;;3.28;1.48;;;33.50;56.60;;;;;;5032700;28;20033;-67
2021/06/02 12:34:38;;;;;;;4.15;1.40;;;34.60;56.70;;;;;;5032544;28;20040;-67
2021/06/02 12:37:42;;;;;;;5.00;1.58;;;35.30;56.10;;;;;;5020599;28;20040;-68
2021/06/02 12:40:53;;;;;;;3.65;1.80;;;35.40;56.90;;;;;;5019657;28;20491;-68
2021/06/02 12:44:03;;;;;;;3.53;1.50;;;35.60;57.00;;;;;;5032148;28;20523;-67
2021/06/02 12:47:15;;;;;;;5.53;1.90;;;35.30;55.70;;;;;;5009645;28;20044;-67
2021/06/02 12:50:37;;;;;;;;;;;31.90;55.00;;;;;;5020165;28;20053;-67
2021/06/02 12:53:45;;;;;;;2.42;1.67;;;31.30;57.70;;;;;;5031489;28;19912;-67
2021/06/02 12:56:50;;;;;;;2.30;1.73;;;32.80;57.10;;;;;;5019710;28;20044;-68
2021/06/02 12:59:55;;;;;;;4.28;1.80;;;33.50;57.20;;;;;;5032058;28;20049;-67
2021/06/02 13:03:00;;;;;;;3.78;2.10;;;33.90;56.20;;;;;;5034340;28;20041;-67
2021/06/02 13:06:05;;;;;;;5.03;2.00;;;32.80;59.20;;;;;;5041313;28;20052;-67
2021/06/02 13:09:11;;;;;;;3.88;1.98;;;32.70;58.90;;;;;;5018441;28;20045;-68
2021/06/02 13:12:20;;;;;;;3.58;1.90;;;33.30;59.00;;;;;;5026790;28;20219;-68
2021/06/02 13:15:27;;;;;;;5.15;2.03;;;33.60;57.60;;;;;;5044178;28;20040;-66
2021/06/02 13:18:33;;;;;;;3.97;1.83;;;33.20;57.10;;;;;;5031645;28;20040;-67
2021/06/02 13:21:37;;;;;;;2.78;1.98;;;32.60;58.30;;;;;;5029764;28;20074;-67
2021/06/02 13:24:41;;;;;;;2.72;1.95;;;32.30;59.60;;;;;;5014741;28;20049;-67
2021/06/02 13:27:45;;;;;;;3.95;1.90;;;32.50;60.10;;;;;;5011572;28;20041;-68
2021/06/02 13:30:54;;;;;;;3.30;1.75;;;32.90;58.40;;;;;;5009844;28;20040;-69
2021/06/02 13:33:59;;;;;;;2.38;1.90;;;33.10;57.30;;;;;;5010522;28;20049;-67
2021/06/02 13:37:15;;;;;;;3.50;1.85;;;33.30;57.90;;;;;;5010071;28;20476;-67
2021/06/02 13:40:21;;;;;;;3.50;2.03;;;33.00;57.60;;;;;;5010831;28;20044;-66
2021/06/02 13:43:25;;;;;;;8.95;1.80;;;32.90;57.60;;;;;;5018245;28;20044;-65
2021/06/02 13:46:29;;;;;;;5.40;1.80;;;32.60;57.80;;;;;;5031040;28;20040;-67
2021/06/02 13:49:35;;;;;;;5.30;2.28;;;32.70;58.10;;;;;;5018327;28;20396;-66
2021/06/02 13:52:41;;;;;;;3.13;2.13;;;32.10;58.40;;;;;;5029469;28;20312;-67
2021/06/02 13:55:55;;;;;;;4.50;2.13;;;31.80;59.70;;;;;;5029597;28;20048;-67
2021/06/02 13:59:12;;;;;;;5.90;2.08;;;31.50;60.20;;;;;;5022911;28;20041;-67
2021/06/02 14:02:29;;;;;;;4.57;2.20;;;31.60;60.90;;;;;;5009421;28;20040;-67
2021/06/02 14:05:34;;;;;;;4.07;1.80;;;31.70;60.90;;;;;;5010259;28;20037;-68
2021/06/02 14:08:38;;;;;;;3.75;2.20;;;31.50;60.50;;;;;;5010346;28;20052;-68
2021/06/02 14:11:44;;;;;;;3.25;1.80;;;31.40;61.70;;;;;;5010212;28;20049;-67
2021/06/02 14:14:49;;;;;;;8.82;2.25;;;31.10;60.10;;;;;;5014417;28;20539;-68
2021/06/02 14:17:53;;;;;;;3.30;1.80;;;29.60;61.70;;;;;;5030414;28;20052;-68
2021/06/02 14:20:59;;;;;;;2.80;1.92;;;29.90;61.40;;;;;;5030265;28;20033;-67
2021/06/02 14:24:05;;;;;;;3.75;2.20;;;30.10;61.40;;;;;;5030898;28;20048;-67
2021/06/02 14:27:10;;;;;;;4.32;2.03;;;30.50;61.60;;;;;;5029762;28;20053;-67
2021/06/02 14:30:16;;;;;;;2.35;1.80;;;30.60;61.30;;;;;;5029938;28;20388;-67
2021/06/02 14:33:21;;;;;;;3.28;2.10;;;30.30;62.30;;;;;;5033177;28;20057;-68
2021/06/02 14:36:25;;;;;;;6.00;2.22;;;30.20;63.50;;;;;;5049352;28;20542;-68
2021/06/02 14:39:29;;;;;;;3.30;1.70;;;30.30;62.80;;;;;;5048310;28;20044;-67
2021/06/02 14:42:34;;;;;;;7.60;2.33;;;30.10;63.70;;;;;;5030654;28;20052;-67
2021/06/02 14:45:40;;;;;;;4.63;1.88;;;30.00;62.20;;;;;;5037181;28;20511;-67
2021/06/02 14:48:44;;;;;;;3.67;1.95;;;29.90;62.90;;;;;;5049714;28;20043;-68
2021/06/02 14:51:48;;;;;;;2.60;1.83;;;29.40;61.30;;;;;;5049962;28;20040;-68
2021/06/02 14:54:52;;;;;;;2.10;1.67;;;28.60;61.40;;;;;;5050279;28;20052;-69
2021/06/02 14:57:57;;;;;;;14.48;2.35;;;28.50;63.60;;;;;;5050712;28;20048;-69
2021/06/02 15:01:02;;;;;;;3.05;2.05;;;28.60;65.80;;;;;;5030319;28;20041;-69
2021/06/02 15:04:07;;;;;;;3.38;2.10;;;28.90;62.90;;;;;;5011341;28;20393;-68
2021/06/02 15:07:11;;;;;;;4.88;1.92;;;28.90;62.10;;;;;;5012811;28;20421;-68
2021/06/02 15:10:15;;;;;;;2.55;2.00;;;29.10;61.70;;;;;;5009107;28;20061;-69
2021/06/02 15:13:23;;;;;;;4.65;2.05;;;29.10;62.90;;;;;;5023665;28;20048;-67
2021/06/02 15:16:28;;;;;;;2.97;1.88;;;29.10;62.00;;;;;;5030932;28;20059;-68
2021/06/02 15:19:34;;;;;;;24.55;2.97;;;29.10;63.10;;;;;;5030551;28;20068;-68
2021/06/02 15:22:39;;;;;;;5.82;2.00;;;28.80;64.50;;;;;;5016548;28;20041;-68
2021/06/02 15:25:44;;;;;;;3.53;1.70;;;28.60;63.30;;;;;;5010102;28;20072;-68
2021/06/02 15:28:56;;;;;;;2.92;1.70;;;28.50;63.60;;;;;;5011208;28;20045;-68
2021/06/02 15:32:00;;;;;;;16.15;4.32;;;28.30;64.00;;;;;;5009059;28;20055;-68
2021/06/02 15:35:08;;;;;;;6.57;4.15;;;28.30;64.00;;;;;;5009692;28;20052;-67
2021/06/02 15:38:13;;;;;;;5.95;1.88;;;28.30;64.00;;;;;;4997597;28;20708;-68
2021/06/02 15:41:18;;;;;;;3.33;1.70;;;28.40;63.50;;;;;;5007773;28;20047;-68
2021/06/02 15:44:23;;;;;;;3.50;1.90;;;28.30;62.60;;;;;;5026659;28;20117;-68
2021/06/02 15:47:28;;;;;;;5.72;2.30;;;28.20;65.60;;;;;;5019955;28;20053;-69
2021/06/02 15:50:33;;;;;;;7.15;1.95;;;27.60;65.90;;;;;;5013820;28;20044;-69
2021/06/02 15:53:39;;;;;;;5.25;2.08;;;27.50;66.50;;;;;;5018955;28;20037;-69
2021/06/02 15:56:47;;;;;;;4.07;1.90;;;27.40;67.20;;;;;;5009311;28;20044;-69
2021/06/02 15:59:52;;;;;;;3.67;1.73;;;27.40;66.30;;;;;;5010640;28;20045;-68
2021/06/02 16:02:57;;;;;;;2.33;1.60;;;27.30;66.90;;;;;;5011430;28;20492;-68
2021/06/02 16:06:01;;;;;;;2.55;2.03;;;27.40;66.80;;;;;;4998452;28;20045;-70
2021/06/02 16:09:05;;;;;;;3.97;2.10;;;27.20;65.90;;;;;;4997752;28;20041;-69
2021/06/02 16:12:10;;;;;;;4.63;3.60;;;27.20;66.70;;;;;;5009174;28;20037;-69
2021/06/02 16:15:15;;;;;;;3.28;2.20;;;27.20;69.10;;;;;;5017671;28;20045;-69
2021/06/02 16:18:20;;;;;;;4.85;2.08;;;27.10;66.60;;;;;;5015930;28;20049;-68
2021/06/02 16:21:24;;;;;;;2.80;2.60;;;27.10;67.30;;;;;;5015580;28;20381;-69
2021/06/02 16:24:28;;;;;;;4.30;2.10;;;27.10;66.50;;;;;;5018484;28;20499;-69
2021/06/02 16:27:35;;;;;;;3.72;1.98;;;27.10;65.90;;;;;;5014025;28;20068;-68
2021/06/02 16:30:41;;;;;;;5.28;1.60;;;27.10;65.10;;;;;;5014998;28;20048;-68
2021/06/02 16:33:47;;;;;;;2.08;1.60;;;27.10;66.00;;;;;;5015338;28;20052;-68
2021/06/02 16:36:52;;;;;;;3.75;2.10;;;27.00;65.70;;;;;;5004396;28;20048;-68
2021/06/02 16:39:59;;;;;;;3.88;1.85;;;27.00;66.30;;;;;;5012062;28;20044;-68
2021/06/02 16:43:04;;;;;;;5.10;2.05;;;26.90;65.30;;;;;;5003705;28;20397;-68